createdAt,value
2017-05-24T00:00:18.806Z,54.60
2017-05-24T00:02:47.048Z,54.40
2017-05-24T00:05:15.722Z,54.40
2017-05-24T00:07:43.972Z,54.40
2017-05-24T00:10:12.202Z,54.40
2017-05-24T00:12:46.881Z,53.80
2017-05-24T00:15:15.244Z,54.00
2017-05-24T00:17:43.496Z,53.60
2017-05-24T00:28:53.001Z,53.70
2017-05-24T00:31:21.237Z,53.70
2017-05-24T00:33:49.492Z,53.70
2017-05-24T00:36:17.732Z,53.70
2017-05-24T00:38:45.978Z,53.30
2017-05-24T00:41:14.214Z,53.60
2017-05-24T00:43:42.488Z,53.10
2017-05-24T00:46:10.732Z,52.90
2017-05-24T00:51:33.220Z,52.70
2017-05-24T00:54:01.496Z,53.00
2017-05-24T00:56:29.720Z,52.90
2017-05-24T00:58:57.954Z,53.20
2017-05-24T01:01:39.579Z,52.70
2017-05-24T01:04:17.508Z,52.70
2017-05-24T01:06:45.759Z,52.50
2017-05-24T01:09:13.995Z,52.70
2017-05-24T01:11:42.232Z,53.00
2017-05-24T01:14:11.431Z,52.60
2017-05-24T01:16:39.664Z,52.70
2017-05-24T01:22:02.245Z,52.30
2017-05-24T01:24:30.561Z,52.40
2017-05-24T01:26:58.835Z,51.80
2017-05-24T01:29:27.064Z,52.10
2017-05-24T01:31:55.328Z,51.70
2017-05-24T01:34:23.563Z,51.40
2017-05-24T01:36:51.812Z,51.20
2017-05-24T01:39:20.101Z,50.70
2017-05-24T01:41:48.356Z,50.50
2017-05-24T01:44:16.627Z,50.70
2017-05-24T01:46:44.903Z,50.70
2017-05-24T01:49:13.186Z,50.70
2017-05-24T01:51:41.415Z,50.40
2017-05-24T01:54:15.588Z,50.60
2017-05-24T01:56:43.816Z,50.80
2017-05-24T02:02:05.604Z,50.70
2017-05-24T02:04:33.892Z,50.80
2017-05-24T02:07:02.132Z,50.90
2017-05-24T02:09:31.631Z,51.10
2017-05-24T02:11:59.859Z,51.00
2017-05-24T02:14:28.127Z,51.00
2017-05-24T02:16:56.358Z,51.10
2017-05-24T02:19:24.613Z,51.00
2017-05-24T02:21:52.856Z,50.90
2017-05-24T02:24:21.092Z,51.50
2017-05-24T02:26:49.352Z,51.10
2017-05-24T02:29:17.583Z,51.30
2017-05-24T02:31:45.875Z,51.40
2017-05-24T02:34:20.172Z,51.80
2017-05-24T02:36:48.413Z,51.60
2017-05-24T02:39:16.648Z,51.40
2017-05-24T02:41:44.910Z,51.70
2017-05-24T02:44:13.281Z,52.40
2017-05-24T02:46:41.543Z,52.00
2017-05-24T02:49:09.780Z,51.90
2017-05-24T02:51:38.011Z,52.10
2017-05-24T02:54:06.269Z,52.30
2017-05-24T02:56:34.507Z,52.70
2017-05-24T02:59:02.755Z,52.30
2017-05-24T03:04:25.223Z,52.40
2017-05-24T03:06:53.451Z,52.40
2017-05-24T03:09:21.723Z,52.40
2017-05-24T03:11:49.979Z,52.50
2017-05-24T03:14:18.261Z,52.90
2017-05-24T03:16:46.486Z,52.60
2017-05-24T03:19:18.539Z,53.10
2017-05-24T03:21:46.774Z,52.70
2017-05-24T03:24:15.009Z,52.90
2017-05-24T03:26:43.249Z,53.10
2017-05-24T03:29:11.503Z,53.30
2017-05-24T03:31:39.748Z,52.70
2017-05-24T03:34:07.977Z,52.80
2017-05-24T03:36:36.332Z,52.90
2017-05-24T03:39:04.581Z,53.10
2017-05-24T03:41:32.865Z,53.00
2017-05-24T03:44:01.109Z,52.80
2017-05-24T03:46:29.351Z,53.10
2017-05-24T03:48:57.640Z,52.80
2017-05-24T03:51:25.951Z,52.80
2017-05-24T03:53:54.352Z,53.20
2017-05-24T03:56:22.617Z,53.20
2017-05-24T03:58:50.879Z,53.30
2017-05-24T04:01:19.126Z,53.20
2017-05-24T04:03:47.383Z,53.50
2017-05-24T04:06:15.687Z,53.30
2017-05-24T04:08:43.945Z,53.60
2017-05-24T04:11:12.208Z,53.40
2017-05-24T04:13:40.449Z,53.40
2017-05-24T04:16:08.705Z,53.40
2017-05-24T04:18:36.952Z,53.70
2017-05-24T04:21:05.197Z,53.70
2017-05-24T04:23:33.427Z,53.80
2017-05-24T04:26:01.681Z,53.70
2017-05-24T04:28:29.957Z,53.70
2017-05-24T04:30:58.227Z,53.70
2017-05-24T04:33:26.481Z,53.80
2017-05-24T04:35:54.730Z,53.60
2017-05-24T04:38:22.959Z,53.70
2017-05-24T04:40:51.184Z,53.50
2017-05-24T04:43:19.424Z,53.70
2017-05-24T04:45:47.677Z,53.50
2017-05-24T04:48:15.921Z,53.50
2017-05-24T04:50:44.164Z,53.50
2017-05-24T04:53:12.442Z,53.40
2017-05-24T04:55:40.695Z,53.60
2017-05-24T04:58:08.931Z,53.50
2017-05-24T05:00:37.187Z,53.60
2017-05-24T05:03:05.417Z,53.10
2017-05-24T05:05:33.667Z,53.10
2017-05-24T05:08:01.936Z,52.60
2017-05-24T05:10:30.201Z,52.30
2017-05-24T05:12:58.433Z,52.40
2017-05-24T05:15:26.669Z,52.70
2017-05-24T05:17:54.908Z,52.50
2017-05-24T05:20:23.161Z,52.10
2017-05-24T05:22:51.413Z,52.10
2017-05-24T05:25:19.679Z,52.00
2017-05-24T05:27:47.921Z,51.90
2017-05-24T05:30:16.173Z,51.60
2017-05-24T05:32:44.427Z,52.50
2017-05-24T05:35:13.066Z,51.70
2017-05-24T05:37:41.337Z,51.10
2017-05-24T05:40:09.600Z,51.30
2017-05-24T05:42:37.953Z,51.30
2017-05-24T05:45:06.203Z,50.90
2017-05-24T05:47:34.468Z,51.00
2017-05-24T05:50:02.707Z,50.90
2017-05-24T05:52:30.955Z,51.10
2017-05-24T05:54:59.192Z,51.40
2017-05-24T05:57:27.468Z,50.90
2017-05-24T05:59:55.719Z,51.30
2017-05-24T06:02:23.956Z,49.80
2017-05-24T06:04:52.216Z,49.60
2017-05-24T06:07:20.514Z,50.00
2017-05-24T06:09:48.771Z,50.20
2017-05-24T06:12:17.072Z,50.00
2017-05-24T06:14:45.333Z,49.30
2017-05-24T06:17:13.569Z,49.00
2017-05-24T06:19:41.827Z,49.50
2017-05-24T06:22:10.070Z,49.80
2017-05-24T06:24:38.328Z,49.20
2017-05-24T06:27:06.574Z,49.40
2017-05-24T06:29:34.811Z,49.70
2017-05-24T06:32:03.073Z,49.00
2017-05-24T06:34:31.363Z,48.90
2017-05-24T06:36:59.598Z,49.20
2017-05-24T06:39:27.867Z,49.70
2017-05-24T06:41:56.154Z,53.40
2017-05-24T06:44:24.464Z,49.40
2017-05-24T06:46:52.703Z,48.90
2017-05-24T06:49:20.955Z,50.00
2017-05-24T06:51:49.228Z,48.90
2017-05-24T06:54:17.455Z,49.00
2017-05-24T06:56:45.695Z,49.10
2017-05-24T06:59:13.927Z,49.80
2017-05-24T07:01:42.207Z,48.50
2017-05-24T07:04:10.463Z,48.40
2017-05-24T07:06:38.719Z,47.50
2017-05-24T07:09:06.967Z,48.00
2017-05-24T07:11:35.211Z,47.70
2017-05-24T07:14:03.483Z,48.60
2017-05-24T07:19:06.503Z,47.60
2017-05-24T07:21:34.763Z,49.00
2017-05-24T07:24:02.996Z,47.30
2017-05-24T07:26:31.247Z,46.70
2017-05-24T07:28:59.519Z,46.40
2017-05-24T07:31:27.759Z,46.20
2017-05-24T07:33:56.008Z,47.30
2017-05-24T07:36:24.276Z,47.20
2017-05-24T07:38:52.519Z,46.50
2017-05-24T07:41:20.796Z,46.80
2017-05-24T07:43:49.031Z,47.00
2017-05-24T07:46:17.292Z,47.00
2017-05-24T07:48:45.563Z,46.30
2017-05-24T07:51:13.818Z,46.60
2017-05-24T07:53:42.071Z,46.70
2017-05-24T07:56:10.332Z,48.20
2017-05-24T07:58:38.587Z,46.70
2017-05-24T08:01:06.837Z,47.00
2017-05-24T08:03:35.132Z,46.80
2017-05-24T08:06:03.381Z,46.20
2017-05-24T08:08:31.629Z,46.60
2017-05-24T08:10:59.859Z,47.70
2017-05-24T08:13:28.095Z,46.90
2017-05-24T08:15:56.363Z,47.30
2017-05-24T08:18:24.613Z,46.70
2017-05-24T08:20:52.879Z,47.30
2017-05-24T08:23:21.122Z,46.20
2017-05-24T08:25:49.352Z,46.60
2017-05-24T08:28:17.611Z,46.30
2017-05-24T08:30:45.871Z,46.50
2017-05-24T08:33:14.147Z,45.30
2017-05-24T08:35:42.412Z,44.90
2017-05-24T08:38:10.669Z,44.80
2017-05-24T08:40:38.910Z,45.30
2017-05-24T08:43:07.136Z,44.90
2017-05-24T08:45:35.388Z,45.10
2017-05-24T08:48:03.638Z,45.00
2017-05-24T08:50:31.913Z,45.30
2017-05-24T08:53:00.148Z,46.00
2017-05-24T08:55:28.397Z,45.20
2017-05-24T08:57:56.637Z,45.40
2017-05-24T09:00:24.898Z,45.80
2017-05-24T09:05:47.599Z,46.20
2017-05-24T09:08:15.847Z,45.30
2017-05-24T09:10:49.866Z,45.90
2017-05-24T09:13:18.120Z,46.00
2017-05-24T09:15:46.353Z,45.80
2017-05-24T09:18:14.611Z,44.60
2017-05-24T09:20:42.913Z,46.00
2017-05-24T09:23:11.205Z,45.40
2017-05-24T09:25:39.451Z,44.80
2017-05-24T09:28:07.708Z,45.10
2017-05-24T09:30:35.958Z,44.80
2017-05-24T09:33:04.219Z,44.70
2017-05-24T09:35:32.485Z,44.80
2017-05-24T09:38:00.733Z,44.70
2017-05-24T09:43:22.475Z,44.10
2017-05-24T09:45:50.711Z,43.60
2017-05-24T09:48:34.135Z,43.50
2017-05-24T09:51:02.397Z,44.60
2017-05-24T09:53:30.655Z,44.40
2017-05-24T09:55:58.931Z,44.50
2017-05-24T10:01:21.279Z,43.00
2017-05-24T10:03:49.566Z,42.30
2017-05-24T10:06:17.796Z,42.60
2017-05-24T10:08:46.030Z,43.50
2017-05-24T10:11:14.279Z,44.20
2017-05-24T10:13:42.526Z,44.00
2017-05-24T10:16:10.763Z,44.60
2017-05-24T10:18:39.027Z,43.50
2017-05-24T10:21:07.311Z,43.60
2017-05-24T10:23:35.570Z,43.70
2017-05-24T10:26:03.843Z,43.40
2017-05-24T10:28:32.084Z,43.50
2017-05-24T10:31:00.375Z,44.50
2017-05-24T10:33:28.616Z,42.70
2017-05-24T10:35:56.896Z,41.90
2017-05-24T10:38:31.006Z,41.90
2017-05-24T10:41:04.952Z,43.70
2017-05-24T10:43:33.198Z,43.00
2017-05-24T10:46:01.456Z,42.60
2017-05-24T10:48:29.702Z,42.00
2017-05-24T10:50:57.953Z,41.80
2017-05-24T10:53:26.280Z,42.00
2017-05-24T10:55:54.507Z,42.70
2017-05-24T10:58:22.766Z,43.70
2017-05-24T11:00:51.023Z,42.90
2017-05-24T11:03:19.276Z,43.00
2017-05-24T11:05:47.511Z,42.70
2017-05-24T11:08:15.748Z,42.20
2017-05-24T11:10:44.696Z,42.00
2017-05-24T11:13:12.927Z,41.50
2017-05-24T11:18:41.404Z,42.00
2017-05-24T11:21:09.680Z,41.90
2017-05-24T11:23:37.936Z,39.60
2017-05-24T11:26:06.198Z,40.00
2017-05-24T11:28:34.445Z,41.10
2017-05-24T11:31:02.708Z,41.60
2017-05-24T11:33:30.949Z,42.10
2017-05-24T11:35:59.215Z,42.50
2017-05-24T11:38:27.451Z,42.30
2017-05-24T11:40:55.813Z,41.90
2017-05-24T11:43:24.076Z,42.80
2017-05-24T11:45:52.341Z,42.40
2017-05-24T11:48:20.575Z,42.90
2017-05-24T11:50:48.826Z,43.10
2017-05-24T11:53:17.089Z,43.10
2017-05-24T11:55:45.343Z,42.80
2017-05-24T11:58:13.600Z,43.70
2017-05-24T12:00:41.869Z,42.70
2017-05-24T12:03:10.155Z,44.30
2017-05-24T12:05:38.463Z,42.30
2017-05-24T12:08:06.726Z,41.80
2017-05-24T12:10:34.950Z,41.70
2017-05-24T12:13:03.205Z,42.40
2017-05-24T12:15:31.887Z,43.10
2017-05-24T12:18:00.127Z,41.40
2017-05-24T12:20:28.379Z,42.10
2017-05-24T12:22:56.658Z,41.90
2017-05-24T12:25:24.904Z,41.40
2017-05-24T12:27:53.141Z,43.20
2017-05-24T12:30:21.375Z,43.10
2017-05-24T12:32:49.639Z,43.00
2017-05-24T12:35:17.938Z,42.70
2017-05-24T12:37:46.199Z,42.50
2017-05-24T12:40:14.439Z,42.80
2017-05-24T12:42:42.677Z,43.10
2017-05-24T12:45:10.939Z,41.90
2017-05-24T12:47:39.178Z,41.60
2017-05-24T12:53:01.420Z,41.70
2017-05-24T12:55:29.663Z,42.50
2017-05-24T12:57:57.923Z,42.20
2017-05-24T13:00:26.316Z,41.60
2017-05-24T13:02:54.577Z,42.80
2017-05-24T13:05:23.013Z,42.20
2017-05-24T13:07:51.261Z,42.60
2017-05-24T13:10:19.529Z,43.50
2017-05-24T13:12:48.509Z,43.40
2017-05-24T13:15:16.754Z,42.80
2017-05-24T13:17:44.992Z,43.20
2017-05-24T13:20:13.240Z,43.50
2017-05-24T13:22:41.484Z,43.50
2017-05-24T13:25:09.743Z,42.30
2017-05-24T13:27:51.887Z,42.70
2017-05-24T13:30:20.147Z,43.40
2017-05-24T13:32:48.389Z,42.90
2017-05-24T13:35:16.817Z,42.70
2017-05-24T13:37:45.071Z,43.20
2017-05-24T13:40:13.327Z,43.70
2017-05-24T13:45:35.207Z,43.00
2017-05-24T13:48:03.490Z,43.20
2017-05-24T13:50:44.185Z,44.10
2017-05-24T13:53:12.424Z,43.10
2017-05-24T13:55:40.696Z,43.20
2017-05-24T13:58:08.936Z,42.80
2017-05-24T14:00:37.182Z,43.20
2017-05-24T14:03:05.510Z,43.00
2017-05-24T14:05:33.776Z,43.40
2017-05-24T14:08:02.018Z,43.20
2017-05-24T14:10:30.261Z,43.80
2017-05-24T14:12:58.495Z,43.20
2017-05-24T14:15:26.736Z,44.10
2017-05-24T14:17:54.987Z,44.00
2017-05-24T14:20:23.271Z,43.40
2017-05-24T14:25:45.106Z,44.00
2017-05-24T14:28:13.336Z,42.50
2017-05-24T14:30:41.583Z,42.90
2017-05-24T14:33:09.819Z,43.70
2017-05-24T14:35:38.060Z,43.30
2017-05-24T14:38:06.299Z,43.70
2017-05-24T14:40:34.546Z,44.10
2017-05-24T14:43:02.815Z,45.10
2017-05-24T14:45:31.056Z,44.20
2017-05-24T14:47:59.305Z,44.00
2017-05-24T14:50:27.575Z,44.50
2017-05-24T14:52:55.823Z,43.80
2017-05-24T14:55:24.072Z,44.60
2017-05-24T14:57:52.308Z,44.50
2017-05-24T15:00:20.554Z,44.20
2017-05-24T15:02:48.792Z,44.50
2017-05-24T15:05:17.222Z,44.70
2017-05-24T15:07:45.455Z,44.80
2017-05-24T15:10:13.709Z,45.20
2017-05-24T15:12:48.415Z,45.30
2017-05-24T15:15:16.672Z,46.00
2017-05-24T15:17:44.895Z,45.70
2017-05-24T15:20:13.142Z,46.50
2017-05-24T15:22:41.371Z,46.30
2017-05-24T15:25:09.662Z,46.20
2017-05-24T15:27:37.915Z,45.60
2017-05-24T15:30:06.169Z,46.30
2017-05-24T15:32:34.446Z,46.20
2017-05-24T15:35:02.676Z,46.20
2017-05-24T15:37:30.927Z,46.40
2017-05-24T15:39:59.159Z,46.10
2017-05-24T15:42:27.413Z,46.60
2017-05-24T15:44:55.674Z,45.80
2017-05-24T15:47:23.916Z,45.40
2017-05-24T15:49:52.175Z,45.10
2017-05-24T15:52:20.423Z,45.40
2017-05-24T15:54:48.667Z,45.50
2017-05-24T15:57:17.015Z,45.10
2017-05-24T15:59:45.266Z,44.80
2017-05-24T16:02:13.495Z,45.00
2017-05-24T16:04:41.754Z,44.20
2017-05-24T16:07:10.023Z,43.90
2017-05-24T16:09:38.260Z,43.50
2017-05-24T16:12:06.538Z,42.90
2017-05-24T16:14:34.812Z,42.40
2017-05-24T16:17:03.103Z,42.80
2017-05-24T16:19:31.355Z,43.20
2017-05-24T16:21:59.606Z,43.70
2017-05-24T16:24:27.875Z,44.40
2017-05-24T16:26:56.102Z,44.80
2017-05-24T16:29:24.393Z,45.50
2017-05-24T16:31:52.647Z,46.10
2017-05-24T16:34:20.885Z,46.20
2017-05-24T16:36:49.165Z,46.10
2017-05-24T16:39:17.434Z,47.20
2017-05-24T16:41:45.753Z,46.00
2017-05-24T16:44:14.011Z,47.10
2017-05-24T16:46:42.286Z,46.40
2017-05-24T16:49:10.538Z,46.40
2017-05-24T16:51:38.806Z,46.80
2017-05-24T16:54:07.055Z,46.90
2017-05-24T16:56:35.304Z,47.90
2017-05-24T16:59:03.584Z,47.30
2017-05-24T17:01:31.813Z,47.40
2017-05-24T17:04:00.057Z,47.80
2017-05-24T17:06:28.307Z,48.90
2017-05-24T17:08:56.551Z,49.00
2017-05-24T17:11:24.808Z,49.90
2017-05-24T17:13:53.076Z,49.20
2017-05-24T17:16:21.337Z,49.30
2017-05-24T17:18:49.591Z,49.70
2017-05-24T17:21:17.843Z,50.20
2017-05-24T17:23:46.105Z,50.10
2017-05-24T17:26:14.340Z,50.30
2017-05-24T17:28:42.583Z,50.60
2017-05-24T17:31:10.833Z,50.30
2017-05-24T17:33:39.100Z,50.40
2017-05-24T17:36:07.360Z,50.70
2017-05-24T17:38:35.595Z,51.00
2017-05-24T17:41:03.872Z,51.30
2017-05-24T17:43:32.134Z,51.50
2017-05-24T17:46:00.374Z,51.80
2017-05-24T17:48:28.636Z,51.60
2017-05-24T17:50:56.915Z,51.80
2017-05-24T17:53:25.157Z,51.70
2017-05-24T17:55:53.408Z,52.30
2017-05-24T17:58:21.670Z,52.00
2017-05-24T18:00:49.999Z,52.30
2017-05-24T18:03:18.268Z,52.00
2017-05-24T18:05:46.536Z,52.50
2017-05-24T18:08:14.787Z,52.70
2017-05-24T18:10:43.056Z,52.80
2017-05-24T18:13:11.319Z,53.00
2017-05-24T18:15:39.608Z,53.10
2017-05-24T18:18:07.848Z,52.70
2017-05-24T18:20:36.131Z,52.90
2017-05-24T18:23:04.398Z,53.20
2017-05-24T18:25:32.675Z,53.40
2017-05-24T18:28:00.931Z,53.40
2017-05-24T18:30:29.213Z,53.50
2017-05-24T18:32:57.483Z,53.90
2017-05-24T18:35:26.187Z,53.70
2017-05-24T18:37:54.426Z,54.20
2017-05-24T18:40:22.663Z,54.30
2017-05-24T18:42:50.903Z,54.50
2017-05-24T18:45:19.140Z,54.70
2017-05-24T18:47:47.384Z,54.80
2017-05-24T18:50:15.666Z,55.00
2017-05-24T18:52:43.997Z,55.30
2017-05-24T18:55:12.232Z,55.20
2017-05-24T18:57:40.556Z,55.60
2017-05-24T19:00:08.798Z,55.40
2017-05-24T19:02:37.032Z,55.50
2017-05-24T19:05:06.027Z,55.80
2017-05-24T19:07:34.380Z,56.10
2017-05-24T19:10:02.633Z,56.40
2017-05-24T19:12:30.885Z,56.70
2017-05-24T19:14:59.117Z,56.30
2017-05-24T19:17:27.359Z,56.70
2017-05-24T19:19:55.640Z,56.30
2017-05-24T19:22:23.907Z,56.60
2017-05-24T19:24:52.184Z,56.90
2017-05-24T19:27:20.433Z,56.60
2017-05-24T19:29:48.683Z,56.60
2017-05-24T19:32:16.946Z,56.70
2017-05-24T19:34:45.180Z,56.70
2017-05-24T19:37:13.447Z,56.70
2017-05-24T19:39:41.676Z,56.30
2017-05-24T19:42:09.954Z,56.70
2017-05-24T19:44:38.179Z,56.30
2017-05-24T19:47:06.449Z,56.30
2017-05-24T19:49:34.695Z,56.40
2017-05-24T19:52:02.966Z,56.60
2017-05-24T19:54:31.228Z,56.90
2017-05-24T19:56:59.479Z,57.50
2017-05-24T19:59:27.709Z,57.80
2017-05-24T20:01:55.983Z,57.80
2017-05-24T20:04:24.215Z,57.60
2017-05-24T20:06:52.449Z,58.20
2017-05-24T20:09:20.686Z,58.00
2017-05-24T20:11:48.927Z,58.60
2017-05-24T20:14:17.190Z,57.70
2017-05-24T20:16:45.443Z,57.60
2017-05-24T20:19:13.688Z,57.90
2017-05-24T20:21:41.919Z,58.10
2017-05-24T20:24:10.173Z,58.50
2017-05-24T20:26:38.417Z,58.60
2017-05-24T20:29:06.664Z,58.60
2017-05-24T20:31:34.896Z,58.70
2017-05-24T20:34:03.154Z,58.70
2017-05-24T20:36:31.421Z,58.40
2017-05-24T20:38:59.683Z,58.30
2017-05-24T20:41:27.936Z,58.40
2017-05-24T20:43:56.205Z,59.60
2017-05-24T20:46:24.444Z,59.70
2017-05-24T20:48:52.680Z,59.40
2017-05-24T20:51:20.968Z,59.10
2017-05-24T20:53:49.216Z,59.10
2017-05-24T20:56:17.476Z,59.00
2017-05-24T20:58:45.708Z,59.60
2017-05-24T21:01:13.950Z,59.60
2017-05-24T21:03:42.195Z,59.60
2017-05-24T21:06:10.483Z,59.50
2017-05-24T21:08:38.734Z,59.70
2017-05-24T21:11:06.975Z,60.00
2017-05-24T21:13:35.253Z,60.00
2017-05-24T21:16:03.505Z,60.50
2017-05-24T21:18:31.776Z,60.90
2017-05-24T21:21:00.043Z,60.70
2017-05-24T21:23:28.293Z,60.90
2017-05-24T21:25:56.543Z,61.00
2017-05-24T21:28:24.820Z,61.40
2017-05-24T21:30:53.043Z,61.40
2017-05-24T21:33:21.311Z,61.80
2017-05-24T21:35:49.564Z,61.90
2017-05-24T21:38:17.842Z,62.70
2017-05-24T21:40:46.081Z,62.80
2017-05-24T21:43:14.335Z,62.80
2017-05-24T21:45:42.621Z,62.80
2017-05-24T21:48:10.858Z,63.10
2017-05-24T21:50:39.098Z,63.30
2017-05-24T21:53:07.336Z,63.00
2017-05-24T21:55:35.575Z,64.50
2017-05-24T21:58:03.847Z,64.90
2017-05-24T22:00:32.088Z,63.70
2017-05-24T22:03:00.340Z,63.80
2017-05-24T22:05:28.575Z,63.80
2017-05-24T22:07:56.820Z,64.00
2017-05-24T22:10:25.146Z,64.40
2017-05-24T22:12:53.372Z,63.50
2017-05-24T22:15:21.646Z,63.60
2017-05-24T22:17:49.894Z,63.90
2017-05-24T22:20:18.170Z,64.10
2017-05-24T22:22:46.408Z,65.60
2017-05-24T22:25:14.731Z,65.60
2017-05-24T22:27:42.980Z,65.30
2017-05-24T22:30:11.248Z,64.00
2017-05-24T22:32:39.503Z,64.10
2017-05-24T22:35:08.180Z,64.00
2017-05-24T22:37:36.472Z,63.90
2017-05-24T22:40:04.743Z,64.40
2017-05-24T22:42:33.008Z,64.40
2017-05-24T22:45:01.253Z,64.50
2017-05-24T22:47:29.507Z,65.90
2017-05-24T22:49:57.803Z,65.20
2017-05-24T22:52:26.032Z,64.70
2017-05-24T22:54:54.288Z,64.50
2017-05-24T22:57:22.555Z,64.60
2017-05-24T22:59:50.783Z,64.80
2017-05-24T23:02:19.043Z,64.70
2017-05-24T23:04:47.295Z,64.90
2017-05-24T23:07:15.536Z,65.00
2017-05-24T23:09:43.781Z,65.10
2017-05-24T23:12:12.026Z,65.30
2017-05-24T23:14:40.336Z,65.70
2017-05-24T23:17:08.568Z,66.20
2017-05-24T23:19:36.839Z,66.40
2017-05-24T23:22:05.121Z,66.60
2017-05-24T23:24:33.388Z,66.40
2017-05-24T23:27:01.635Z,66.70
2017-05-24T23:29:29.855Z,67.20
2017-05-24T23:31:58.128Z,67.20
2017-05-24T23:34:26.376Z,67.10
2017-05-24T23:36:54.651Z,67.00
2017-05-24T23:39:22.910Z,66.80
2017-05-24T23:41:51.198Z,67.10
2017-05-24T23:44:19.451Z,66.90
2017-05-24T23:46:47.698Z,67.50
2017-05-24T23:49:15.945Z,67.00
2017-05-24T23:51:44.200Z,67.50
2017-05-24T23:54:12.459Z,67.50
2017-05-24T23:56:40.702Z,67.80
2017-05-24T23:59:08.948Z,68.00
